sensor_id;sensor_type;location;lat;lon;timestamp;P1;P2;P0
77516;PMS7003;68414;53.946;27.634;2023-07-29T00:00:34;8.650000;8.650000;6.583333
77516;PMS7003;68414;53.946;27.634;2023-07-29T00:01:34;7.566667;7.566667;5.866667
77516;PMS7003;68414;53.946;27.634;2023-07-29T00:02:34;7.516667;7.383333;5.666667
77516;PMS7003;68414;53.946;27.634;2023-07-29T00:03:34;9.116667;8.633333;6.466667
77516;PMS7003;68414;53.946;27.634;2023-07-29T00:04:34;9.633333;9.116667;6.833333
77516;PMS7003;68414;53.946;27.634;2023-07-29T00:05:34;9.550000;9.116667;6.433333
77516;PMS7003;68414;53.946;27.634;2023-07-29T00:06:35;8.916667;8.483334;6.333333
77516;PMS7003;68414;53.946;27.634;2023-07-29T00:07:34;7.750000;7.633333;5.233333
77516;PMS7003;68414;53.946;27.634;2023-07-29T00:08:34;9.100000;8.250000;6.150000
77516;PMS7003;68414;53.946;27.634;2023-07-29T00:09:34;8.283334;7.933333;6.066667
77516;PMS7003;68414;53.946;27.634;2023-07-29T00:10:36;9.983334;8.816667;6.066667
77516;PMS7003;68414;53.946;27.634;2023-07-29T00:11:34;8.983334;8.983334;5.583333
77516;PMS7003;68414;53.946;27.634;2023-07-29T00:12:34;9.450000;9.450000;6.383333
77516;PMS7003;68414;53.946;27.634;2023-07-29T00:13:34;8.283334;8.183333;6.733333
77516;PMS7003;68414;53.946;27.634;2023-07-29T00:14:34;8.666667;8.166667;5.933333
77516;PMS7003;68414;53.946;27.634;2023-07-29T00:15:34;10.883333;9.650000;6.666667
77516;PMS7003;68414;53.946;27.634;2023-07-29T00:16:34;9.000000;8.966666;6.300000
77516;PMS7003;68414;53.946;27.634;2023-07-29T00:17:34;8.783334;8.150000;5.800000
77516;PMS7003;68414;53.946;27.634;2023-07-29T00:18:34;10.083333;9.716666;7.233333
77516;PMS7003;68414;53.946;27.634;2023-07-29T00:19:34;10.600000;10.250000;7.116667
77516;PMS7003;68414;53.946;27.634;2023-07-29T00:20:34;9.350000;8.400000;6.466667
77516;PMS7003;68414;53.946;27.634;2023-07-29T00:21:34;10.566667;10.216666;7.683333
77516;PMS7003;68414;53.946;27.634;2023-07-29T00:22:34;9.716666;8.716666;6.783333
77516;PMS7003;68414;53.946;27.634;2023-07-29T00:23:34;10.466666;10.066667;8.066667
77516;PMS7003;68414;53.946;27.634;2023-07-29T00:24:34;9.500000;9.500000;7.500000
77516;PMS7003;68414;53.946;27.634;2023-07-29T00:25:34;11.283334;10.883333;7.916667
77516;PMS7003;68414;53.946;27.634;2023-07-29T00:26:34;9.833333;9.700000;7.500000
77516;PMS7003;68414;53.946;27.634;2023-07-29T00:27:34;11.716666;10.800000;7.600000
77516;PMS7003;68414;53.946;27.634;2023-07-29T00:28:34;9.900000;9.133333;6.766667
77516;PMS7003;68414;53.946;27.634;2023-07-29T00:29:34;9.400000;9.316667;6.800000
77516;PMS7003;68414;53.946;27.634;2023-07-29T00:30:34;9.333333;9.083333;6.483333
77516;PMS7003;68414;53.946;27.634;2023-07-29T00:31:34;9.000000;8.883333;6.850000
77516;PMS7003;68414;53.946;27.634;2023-07-29T00:32:35;10.183333;9.616667;6.716667
77516;PMS7003;68414;53.946;27.634;2023-07-29T00:33:34;10.383333;9.283334;6.416667
77516;PMS7003;68414;53.946;27.634;2023-07-29T00:34:34;10.650000;10.000000;7.216667
77516;PMS7003;68414;53.946;27.634;2023-07-29T00:35:34;8.600000;8.166667;6.566667
77516;PMS7003;68414;53.946;27.634;2023-07-29T00:36:34;8.533334;8.316667;6.416667
77516;PMS7003;68414;53.946;27.634;2023-07-29T00:37:34;8.700000;8.633333;7.133333
77516;PMS7003;68414;53.946;27.634;2023-07-29T00:38:34;9.583333;8.600000;6.200000
77516;PMS7003;68414;53.946;27.634;2023-07-29T00:39:34;10.100000;9.333333;7.216667
77516;PMS7003;68414;53.946;27.634;2023-07-29T00:40:35;8.900000;8.900000;6.733333
77516;PMS7003;68414;53.946;27.634;2023-07-29T00:41:34;10.533334;10.350000;6.750000
77516;PMS7003;68414;53.946;27.634;2023-07-29T00:42:34;9.933333;9.400000;6.833333
77516;PMS7003;68414;53.946;27.634;2023-07-29T00:43:34;11.033334;9.866667;7.216667
77516;PMS7003;68414;53.946;27.634;2023-07-29T00:44:34;9.850000;9.566667;6.900000
77516;PMS7003;68414;53.946;27.634;2023-07-29T00:45:34;9.850000;8.633333;6.916667
77516;PMS7003;68414;53.946;27.634;2023-07-29T00:46:36;8.650000;8.050000;6.450000
77516;PMS7003;68414;53.946;27.634;2023-07-29T00:47:34;8.416667;7.300000;5.833333
77516;PMS7003;68414;53.946;27.634;2023-07-29T00:48:34;9.200000;8.616667;6.316667
77516;PMS7003;68414;53.946;27.634;2023-07-29T00:49:34;9.116667;8.666667;6.400000
77516;PMS7003;68414;53.946;27.634;2023-07-29T00:50:34;9.016666;8.550000;6.933333
77516;PMS7003;68414;53.946;27.634;2023-07-29T00:51:34;9.083333;8.633333;7.000000
77516;PMS7003;68414;53.946;27.634;2023-07-29T00:52:34;8.966666;8.966666;6.466667
77516;PMS7003;68414;53.946;27.634;2023-07-29T00:53:34;10.566667;9.333333;7.150000
77516;PMS7003;68414;53.946;27.634;2023-07-29T00:54:34;11.616667;10.816667;7.450000
77516;PMS7003;68414;53.946;27.634;2023-07-29T00:55:34;10.833333;10.183333;7.666667
77516;PMS7003;68414;53.946;27.634;2023-07-29T00:56:35;9.116667;9.116667;6.466667
77516;PMS7003;68414;53.946;27.634;2023-07-29T00:57:35;10.233334;9.750000;7.250000
77516;PMS7003;68414;53.946;27.634;2023-07-29T00:58:34;9.800000;9.616667;7.650000
77516;PMS7003;68414;53.946;27.634;2023-07-29T00:59:35;10.816667;9.166667;6.833333
77516;PMS7003;68414;53.946;27.634;2023-07-29T01:00:34;10.550000;9.516666;7.650000
77516;PMS7003;68414;53.946;27.634;2023-07-29T01:01:34;10.283334;9.683333;7.700000
77516;PMS7003;68414;53.946;27.634;2023-07-29T01:02:35;10.633333;9.933333;6.900000
77516;PMS7003;68414;53.946;27.634;2023-07-29T01:03:35;9.150000;9.150000;6.833333
77516;PMS7003;68414;53.946;27.634;2023-07-29T01:04:34;10.100000;9.900000;7.483333
77516;PMS7003;68414;53.946;27.634;2023-07-29T01:05:38;11.116667;10.416667;7.533333
77516;PMS7003;68414;53.946;27.634;2023-07-29T01:07:39;11.200000;10.150000;7.250000
77516;PMS7003;68414;53.946;27.634;2023-07-29T01:09:40;10.400000;9.816667;7.433333
77516;PMS7003;68414;53.946;27.634;2023-07-29T01:12:38;11.600000;10.450000;7.900000
77516;PMS7003;68414;53.946;27.634;2023-07-29T01:13:48;10.450000;9.750000;7.916667
77516;PMS7003;68414;53.946;27.634;2023-07-29T01:17:39;11.433333;9.983334;8.183333
77516;PMS7003;68414;53.946;27.634;2023-07-29T01:18:36;12.750000;11.866667;7.783333
77516;PMS7003;68414;53.946;27.634;2023-07-29T01:20:37;11.583333;10.783334;7.950000
77516;PMS7003;68414;53.946;27.634;2023-07-29T01:21:35;10.516666;10.083333;7.733333
77516;PMS7003;68414;53.946;27.634;2023-07-29T01:22:35;10.733334;10.283334;7.366667
77516;PMS7003;68414;53.946;27.634;2023-07-29T01:23:34;10.966666;10.716666;7.450000
77516;PMS7003;68414;53.946;27.634;2023-07-29T01:24:34;12.983334;12.033334;8.466666
77516;PMS7003;68414;53.946;27.634;2023-07-29T01:25:34;11.416667;10.300000;8.200000
77516;PMS7003;68414;53.946;27.634;2023-07-29T01:26:34;10.883333;10.716666;7.816667
77516;PMS7003;68414;53.946;27.634;2023-07-29T01:27:34;12.683333;11.750000;8.566667
77516;PMS7003;68414;53.946;27.634;2023-07-29T01:28:34;13.200000;12.133333;8.766666
77516;PMS7003;68414;53.946;27.634;2023-07-29T01:29:34;12.833333;12.683333;8.433333
77516;PMS7003;68414;53.946;27.634;2023-07-29T01:31:42;11.433333;11.016666;8.066667
77516;PMS7003;68414;53.946;27.634;2023-07-29T01:33:39;10.600000;10.333333;7.916667
77516;PMS7003;68414;53.946;27.634;2023-07-29T01:34:39;11.883333;11.400000;8.233334
77516;PMS7003;68414;53.946;27.634;2023-07-29T01:35:40;11.800000;11.466666;7.566667
77516;PMS7003;68414;53.946;27.634;2023-07-29T01:36:35;10.750000;10.266666;7.100000
77516;PMS7003;68414;53.946;27.634;2023-07-29T01:37:35;10.233334;10.050000;7.150000
77516;PMS7003;68414;53.946;27.634;2023-07-29T01:38:36;9.166667;8.800000;6.766667
77516;PMS7003;68414;53.946;27.634;2023-07-29T01:39:36;10.616667;9.800000;7.050000
77516;PMS7003;68414;53.946;27.634;2023-07-29T01:40:35;10.266666;10.266666;8.116667
77516;PMS7003;68414;53.946;27.634;2023-07-29T01:41:34;10.883333;10.733334;8.283334
77516;PMS7003;68414;53.946;27.634;2023-07-29T01:42:34;11.366667;11.050000;7.850000
77516;PMS7003;68414;53.946;27.634;2023-07-29T01:43:34;10.883333;10.883333;8.333333
77516;PMS7003;68414;53.946;27.634;2023-07-29T01:44:35;10.450000;10.450000;7.566667
77516;PMS7003;68414;53.946;27.634;2023-07-29T01:45:34;10.200000;10.200000;7.500000
77516;PMS7003;68414;53.946;27.634;2023-07-29T01:46:34;11.283334;10.516666;8.450000
77516;PMS7003;68414;53.946;27.634;2023-07-29T01:47:34;11.516666;11.233334;8.116667
77516;PMS7003;68414;53.946;27.634;2023-07-29T01:48:34;11.733334;11.733334;9.100000
77516;PMS7003;68414;53.946;27.634;2023-07-29T01:49:34;11.166667;10.600000;8.066667
77516;PMS7003;68414;53.946;27.634;2023-07-29T01:50:34;8.950000;8.950000;7.200000
77516;PMS7003;68414;53.946;27.634;2023-07-29T01:51:34;11.633333;11.533334;8.550000
77516;PMS7003;68414;53.946;27.634;2023-07-29T01:52:34;13.500000;12.566667;9.716666
77516;PMS7003;68414;53.946;27.634;2023-07-29T01:53:34;11.933333;10.716666;8.483334
77516;PMS7003;68414;53.946;27.634;2023-07-29T01:54:34;10.950000;10.450000;8.233334
77516;PMS7003;68414;53.946;27.634;2023-07-29T01:55:34;11.383333;10.433333;8.000000
77516;PMS7003;68414;53.946;27.634;2023-07-29T01:56:34;12.500000;11.383333;8.700000
77516;PMS7003;68414;53.946;27.634;2023-07-29T01:57:34;10.283334;9.933333;7.633333
77516;PMS7003;68414;53.946;27.634;2023-07-29T01:58:34;11.150000;10.933333;8.183333
77516;PMS7003;68414;53.946;27.634;2023-07-29T01:59:34;10.100000;10.066667;8.133333
77516;PMS7003;68414;53.946;27.634;2023-07-29T02:00:34;12.833333;11.916667;9.350000
77516;PMS7003;68414;53.946;27.634;2023-07-29T02:01:34;12.883333;12.850000;8.816667
77516;PMS7003;68414;53.946;27.634;2023-07-29T02:02:34;12.766666;11.616667;8.116667
77516;PMS7003;68414;53.946;27.634;2023-07-29T02:03:34;11.766666;11.533334;8.083333
77516;PMS7003;68414;53.946;27.634;2023-07-29T02:04:34;11.466666;10.950000;8.250000
77516;PMS7003;68414;53.946;27.634;2023-07-29T02:05:34;12.350000;11.716666;8.483334
77516;PMS7003;68414;53.946;27.634;2023-07-29T02:06:34;11.400000;11.066667;8.266666
77516;PMS7003;68414;53.946;27.634;2023-07-29T02:07:34;12.233334;11.583333;8.533334
77516;PMS7003;68414;53.946;27.634;2023-07-29T02:08:34;12.166667;12.050000;9.233334
77516;PMS7003;68414;53.946;27.634;2023-07-29T02:09:34;13.966666;12.800000;9.683333
77516;PMS7003;68414;53.946;27.634;2023-07-29T02:10:34;11.300000;11.133333;8.233334
77516;PMS7003;68414;53.946;27.634;2023-07-29T02:11:34;12.100000;12.100000;9.350000
77516;PMS7003;68414;53.946;27.634;2023-07-29T02:12:34;12.000000;11.183333;8.216666
77516;PMS7003;68414;53.946;27.634;2023-07-29T02:13:34;12.300000;11.633333;9.033334
77516;PMS7003;68414;53.946;27.634;2023-07-29T02:14:34;14.766666;13.083333;9.000000
77516;PMS7003;68414;53.946;27.634;2023-07-29T02:15:34;12.816667;12.500000;8.450000
77516;PMS7003;68414;53.946;27.634;2023-07-29T02:16:34;12.783334;12.400000;8.966666
77516;PMS7003;68414;53.946;27.634;2023-07-29T02:17:34;12.933333;12.933333;9.316667
77516;PMS7003;68414;53.946;27.634;2023-07-29T02:18:34;13.183333;12.883333;9.733334
77516;PMS7003;68414;53.946;27.634;2023-07-29T02:19:34;14.816667;14.233334;9.666667
77516;PMS7003;68414;53.946;27.634;2023-07-29T02:20:34;13.800000;13.033334;9.466666
77516;PMS7003;68414;53.946;27.634;2023-07-29T02:21:34;12.933333;12.333333;9.216666
77516;PMS7003;68414;53.946;27.634;2023-07-29T02:22:34;14.483334;13.566667;10.500000
77516;PMS7003;68414;53.946;27.634;2023-07-29T02:23:34;13.900000;13.416667;10.183333
77516;PMS7003;68414;53.946;27.634;2023-07-29T02:24:34;14.033334;13.016666;8.950000
77516;PMS7003;68414;53.946;27.634;2023-07-29T02:25:36;15.233334;14.883333;10.133333
77516;PMS7003;68414;53.946;27.634;2023-07-29T02:26:34;15.550000;14.750000;11.083333
77516;PMS7003;68414;53.946;27.634;2023-07-29T02:27:34;14.266666;13.550000;10.000000
77516;PMS7003;68414;53.946;27.634;2023-07-29T02:28:34;13.833333;13.583333;10.366667
77516;PMS7003;68414;53.946;27.634;2023-07-29T02:29:34;14.183333;13.866667;10.666667
77516;PMS7003;68414;53.946;27.634;2023-07-29T02:30:34;17.233334;16.633333;11.300000
77516;PMS7003;68414;53.946;27.634;2023-07-29T02:31:34;14.816667;14.666667;10.733334
77516;PMS7003;68414;53.946;27.634;2023-07-29T02:32:34;16.133333;15.833333;10.400000
77516;PMS7003;68414;53.946;27.634;2023-07-29T02:33:34;14.816667;14.066667;9.833333
77516;PMS7003;68414;53.946;27.634;2023-07-29T02:34:34;15.633333;15.250000;10.766666
77516;PMS7003;68414;53.946;27.634;2023-07-29T02:35:34;14.483334;13.983334;10.083333
77516;PMS7003;68414;53.946;27.634;2023-07-29T02:36:34;16.366667;15.816667;11.183333
77516;PMS7003;68414;53.946;27.634;2023-07-29T02:37:34;15.333333;14.516666;10.366667
77516;PMS7003;68414;53.946;27.634;2023-07-29T02:38:34;15.800000;14.916667;11.266666
77516;PMS7003;68414;53.946;27.634;2023-07-29T02:39:34;14.433333;13.483334;10.350000
77516;PMS7003;68414;53.946;27.634;2023-07-29T02:40:34;15.283334;13.966666;10.733334
77516;PMS7003;68414;53.946;27.634;2023-07-29T02:41:34;18.216667;17.833334;11.766666
77516;PMS7003;68414;53.946;27.634;2023-07-29T02:42:34;19.716667;18.566668;12.783334
77516;PMS7003;68414;53.946;27.634;2023-07-29T02:43:34;16.883333;16.483334;12.350000
77516;PMS7003;68414;53.946;27.634;2023-07-29T02:44:34;15.883333;15.600000;10.800000
77516;PMS7003;68414;53.946;27.634;2023-07-29T02:45:34;16.066668;15.816667;11.766666
77516;PMS7003;68414;53.946;27.634;2023-07-29T02:46:34;15.250000;14.733334;10.166667
77516;PMS7003;68414;53.946;27.634;2023-07-29T02:47:34;17.366667;16.549999;12.183333
77516;PMS7003;68414;53.946;27.634;2023-07-29T02:48:34;17.883333;16.500000;11.250000
77516;PMS7003;68414;53.946;27.634;2023-07-29T02:49:34;16.700001;15.766666;12.083333
77516;PMS7003;68414;53.946;27.634;2023-07-29T02:50:34;13.950000;13.500000;9.966666
77516;PMS7003;68414;53.946;27.634;2023-07-29T02:51:34;17.333334;16.433332;11.550000
77516;PMS7003;68414;53.946;27.634;2023-07-29T02:52:34;17.250000;16.566668;11.616667
77516;PMS7003;68414;53.946;27.634;2023-07-29T02:53:34;15.933333;15.600000;10.166667
77516;PMS7003;68414;53.946;27.634;2023-07-29T02:54:34;16.333334;16.150000;10.833333
77516;PMS7003;68414;53.946;27.634;2023-07-29T02:55:34;15.366667;14.966666;11.350000
77516;PMS7003;68414;53.946;27.634;2023-07-29T02:56:34;18.049999;16.716667;11.716666
77516;PMS7003;68414;53.946;27.634;2023-07-29T02:57:34;16.183332;14.833333;11.316667
77516;PMS7003;68414;53.946;27.634;2023-07-29T02:58:34;16.000000;15.050000;10.950000
77516;PMS7003;68414;53.946;27.634;2023-07-29T02:59:34;15.650000;15.166667;10.850000
77516;PMS7003;68414;53.946;27.634;2023-07-29T03:00:34;16.799999;16.650000;11.216666
77516;PMS7003;68414;53.946;27.634;2023-07-29T03:01:34;15.233334;14.183333;10.266666
77516;PMS7003;68414;53.946;27.634;2023-07-29T03:02:34;15.900000;15.900000;11.033334
77516;PMS7003;68414;53.946;27.634;2023-07-29T03:03:34;13.683333;13.083333;9.933333
77516;PMS7003;68414;53.946;27.634;2023-07-29T03:04:34;13.450000;12.516666;9.366667
77516;PMS7003;68414;53.946;27.634;2023-07-29T03:05:34;15.500000;14.983334;11.066667
77516;PMS7003;68414;53.946;27.634;2023-07-29T03:06:34;15.300000;14.850000;9.816667
77516;PMS7003;68414;53.946;27.634;2023-07-29T03:07:34;15.466666;15.233334;11.100000
77516;PMS7003;68414;53.946;27.634;2023-07-29T03:08:35;16.750000;16.316668;10.683333
77516;PMS7003;68414;53.946;27.634;2023-07-29T03:09:34;14.550000;13.266666;9.366667
77516;PMS7003;68414;53.946;27.634;2023-07-29T03:10:35;16.483334;15.266666;10.933333
77516;PMS7003;68414;53.946;27.634;2023-07-29T03:11:34;17.566668;16.466667;10.966666
77516;PMS7003;68414;53.946;27.634;2023-07-29T03:12:34;13.900000;13.416667;9.733334
77516;PMS7003;68414;53.946;27.634;2023-07-29T03:13:34;13.633333;13.616667;9.883333
77516;PMS7003;68414;53.946;27.634;2023-07-29T03:14:34;17.683332;16.633333;11.166667
77516;PMS7003;68414;53.946;27.634;2023-07-29T03:15:34;14.633333;13.633333;10.233334
77516;PMS7003;68414;53.946;27.634;2023-07-29T03:16:34;15.066667;14.366667;10.500000
77516;PMS7003;68414;53.946;27.634;2023-07-29T03:17:34;14.583333;14.216666;10.300000
77516;PMS7003;68414;53.946;27.634;2023-07-29T03:18:34;13.650000;12.966666;9.700000
77516;PMS7003;68414;53.946;27.634;2023-07-29T03:19:34;13.466666;11.516666;9.050000
77516;PMS7003;68414;53.946;27.634;2023-07-29T03:20:34;14.750000;14.383333;10.066667
77516;PMS7003;68414;53.946;27.634;2023-07-29T03:21:34;14.700000;13.566667;10.066667
77516;PMS7003;68414;53.946;27.634;2023-07-29T03:22:34;12.383333;12.383333;9.416667
77516;PMS7003;68414;53.946;27.634;2023-07-29T03:23:34;14.416667;13.766666;9.950000
77516;PMS7003;68414;53.946;27.634;2023-07-29T03:24:34;13.033334;12.650000;8.850000
77516;PMS7003;68414;53.946;27.634;2023-07-29T03:25:34;12.800000;11.583333;8.766666
77516;PMS7003;68414;53.946;27.634;2023-07-29T03:26:34;13.283334;12.566667;8.800000
77516;PMS7003;68414;53.946;27.634;2023-07-29T03:27:34;13.516666;12.516666;8.850000
77516;PMS7003;68414;53.946;27.634;2023-07-29T03:28:34;13.050000;12.900000;9.183333
77516;PMS7003;68414;53.946;27.634;2023-07-29T03:29:34;14.616667;13.766666;9.233334
77516;PMS7003;68414;53.946;27.634;2023-07-29T03:30:34;11.350000;11.350000;8.900000
77516;PMS7003;68414;53.946;27.634;2023-07-29T03:31:34;12.516666;12.200000;8.616667
77516;PMS7003;68414;53.946;27.634;2023-07-29T03:32:34;12.150000;11.783334;8.266666
77516;PMS7003;68414;53.946;27.634;2023-07-29T03:33:34;11.116667;10.600000;7.600000
77516;PMS7003;68414;53.946;27.634;2023-07-29T03:34:34;12.100000;11.116667;7.833333
77516;PMS7003;68414;53.946;27.634;2023-07-29T03:35:34;11.400000;10.716666;8.050000
77516;PMS7003;68414;53.946;27.634;2023-07-29T03:36:34;13.366667;12.550000;8.133333
77516;PMS7003;68414;53.946;27.634;2023-07-29T03:37:34;12.783334;12.250000;8.400000
77516;PMS7003;68414;53.946;27.634;2023-07-29T03:38:34;11.566667;11.316667;8.550000
77516;PMS7003;68414;53.946;27.634;2023-07-29T03:39:34;11.150000;10.933333;8.783334
77516;PMS7003;68414;53.946;27.634;2023-07-29T03:40:34;11.366667;11.366667;7.916667
77516;PMS7003;68414;53.946;27.634;2023-07-29T03:41:34;11.950000;11.583333;8.250000
77516;PMS7003;68414;53.946;27.634;2023-07-29T03:42:35;12.483334;12.133333;8.200000
77516;PMS7003;68414;53.946;27.634;2023-07-29T03:43:34;11.933333;11.366667;8.350000
77516;PMS7003;68414;53.946;27.634;2023-07-29T03:44:34;12.683333;12.166667;9.216666
77516;PMS7003;68414;53.946;27.634;2023-07-29T03:45:35;10.766666;10.150000;7.816667
77516;PMS7003;68414;53.946;27.634;2023-07-29T03:46:34;11.250000;10.533334;8.083333
77516;PMS7003;68414;53.946;27.634;2023-07-29T03:47:34;9.933333;9.450000;7.033333
77516;PMS7003;68414;53.946;27.634;2023-07-29T03:48:34;10.033334;9.783334;7.416667
77516;PMS7003;68414;53.946;27.634;2023-07-29T03:49:34;12.283334;11.283334;8.066667
77516;PMS7003;68414;53.946;27.634;2023-07-29T03:50:35;11.116667;10.166667;7.533333
77516;PMS7003;68414;53.946;27.634;2023-07-29T03:51:34;9.300000;9.150000;6.850000
77516;PMS7003;68414;53.946;27.634;2023-07-29T03:52:34;12.266666;11.833333;8.600000
77516;PMS7003;68414;53.946;27.634;2023-07-29T03:53:34;10.350000;10.333333;7.516667
77516;PMS7003;68414;53.946;27.634;2023-07-29T03:54:34;12.150000;11.166667;8.233334
77516;PMS7003;68414;53.946;27.634;2023-07-29T03:55:34;9.750000;9.350000;6.600000
77516;PMS7003;68414;53.946;27.634;2023-07-29T03:56:34;10.616667;9.850000;7.666667
77516;PMS7003;68414;53.946;27.634;2023-07-29T03:57:34;11.066667;10.100000;7.866667
77516;PMS7003;68414;53.946;27.634;2023-07-29T03:58:34;10.550000;10.550000;7.850000
77516;PMS7003;68414;53.946;27.634;2023-07-29T03:59:34;9.700000;9.700000;7.216667
77516;PMS7003;68414;53.946;27.634;2023-07-29T04:00:34;9.200000;8.866667;6.316667
77516;PMS7003;68414;53.946;27.634;2023-07-29T04:01:34;9.483334;9.216666;7.200000
77516;PMS7003;68414;53.946;27.634;2023-07-29T04:02:34;10.866667;10.316667;7.300000
77516;PMS7003;68414;53.946;27.634;2023-07-29T04:03:34;11.300000;10.766666;7.433333
77516;PMS7003;68414;53.946;27.634;2023-07-29T04:04:34;9.716666;9.633333;7.333333
77516;PMS7003;68414;53.946;27.634;2023-07-29T04:05:34;10.750000;9.500000;6.850000
77516;PMS7003;68414;53.946;27.634;2023-07-29T04:06:34;9.000000;8.516666;6.516667
77516;PMS7003;68414;53.946;27.634;2023-07-29T04:07:35;10.850000;10.316667;7.116667
77516;PMS7003;68414;53.946;27.634;2023-07-29T04:08:34;10.550000;10.333333;7.766667
77516;PMS7003;68414;53.946;27.634;2023-07-29T04:09:34;11.516666;11.366667;8.166667
77516;PMS7003;68414;53.946;27.634;2023-07-29T04:10:34;9.983334;9.966666;7.800000
77516;PMS7003;68414;53.946;27.634;2023-07-29T04:11:34;11.000000;10.550000;8.166667
77516;PMS7003;68414;53.946;27.634;2023-07-29T04:12:34;9.000000;8.616667;6.566667
77516;PMS7003;68414;53.946;27.634;2023-07-29T04:13:34;9.333333;9.033334;6.550000
77516;PMS7003;68414;53.946;27.634;2023-07-29T04:14:34;8.550000;8.550000;6.116667
77516;PMS7003;68414;53.946;27.634;2023-07-29T04:15:34;8.666667;8.666667;6.166667
77516;PMS7003;68414;53.946;27.634;2023-07-29T04:16:34;8.866667;8.866667;5.950000
77516;PMS7003;68414;53.946;27.634;2023-07-29T04:17:34;9.183333;9.183333;6.800000
77516;PMS7003;68414;53.946;27.634;2023-07-29T04:18:34;9.433333;9.316667;6.850000
77516;PMS7003;68414;53.946;27.634;2023-07-29T04:19:34;8.566667;8.500000;5.983333
77516;PMS7003;68414;53.946;27.634;2023-07-29T04:20:34;10.200000;9.950000;6.783333
77516;PMS7003;68414;53.946;27.634;2023-07-29T04:21:34;10.766666;10.316667;7.500000
77516;PMS7003;68414;53.946;27.634;2023-07-29T04:22:34;10.866667;10.616667;6.850000
77516;PMS7003;68414;53.946;27.634;2023-07-29T04:23:34;10.066667;10.066667;6.883333
77516;PMS7003;68414;53.946;27.634;2023-07-29T04:24:34;10.766666;10.233334;7.616667
77516;PMS7003;68414;53.946;27.634;2023-07-29T04:25:34;9.250000;9.100000;7.083333
77516;PMS7003;68414;53.946;27.634;2023-07-29T04:26:34;9.100000;8.866667;6.633333
77516;PMS7003;68414;53.946;27.634;2023-07-29T04:27:34;9.100000;7.933333;5.133333
77516;PMS7003;68414;53.946;27.634;2023-07-29T04:28:34;8.333333;7.866667;5.933333
77516;PMS7003;68414;53.946;27.634;2023-07-29T04:29:34;9.066667;8.866667;6.516667
77516;PMS7003;68414;53.946;27.634;2023-07-29T04:30:34;11.050000;10.916667;7.633333
77516;PMS7003;68414;53.946;27.634;2023-07-29T04:31:34;8.300000;8.100000;5.683333
77516;PMS7003;68414;53.946;27.634;2023-07-29T04:32:34;7.300000;7.216667;5.833333
77516;PMS7003;68414;53.946;27.634;2023-07-29T04:33:34;9.616667;8.666667;6.800000
77516;PMS7003;68414;53.946;27.634;2023-07-29T04:34:34;8.150000;8.033334;6.200000
77516;PMS7003;68414;53.946;27.634;2023-07-29T04:35:34;7.933333;7.933333;5.816667
77516;PMS7003;68414;53.946;27.634;2023-07-29T04:36:34;8.700000;7.516667;6.133333
77516;PMS7003;68414;53.946;27.634;2023-07-29T04:37:34;7.616667;7.333333;5.966667
77516;PMS7003;68414;53.946;27.634;2023-07-29T04:38:37;8.750000;8.316667;5.866667
77516;PMS7003;68414;53.946;27.634;2023-07-29T04:39:34;8.450000;8.233334;6.133333
77516;PMS7003;68414;53.946;27.634;2023-07-29T04:40:34;7.650000;7.250000;5.700000
77516;PMS7003;68414;53.946;27.634;2023-07-29T04:41:34;9.633333;8.950000;6.700000
77516;PMS7003;68414;53.946;27.634;2023-07-29T04:42:34;8.400000;8.183333;6.466667
77516;PMS7003;68414;53.946;27.634;2023-07-29T04:43:34;8.583333;8.066667;6.216667
77516;PMS7003;68414;53.946;27.634;2023-07-29T04:44:34;9.000000;8.600000;5.916667
77516;PMS7003;68414;53.946;27.634;2023-07-29T04:45:34;8.116667;7.933333;6.400000
77516;PMS7003;68414;53.946;27.634;2023-07-29T04:46:36;10.233334;9.666667;6.666667
77516;PMS7003;68414;53.946;27.634;2023-07-29T04:47:34;10.483334;10.483334;7.566667
77516;PMS7003;68414;53.946;27.634;2023-07-29T04:48:34;8.916667;8.916667;6.633333
77516;PMS7003;68414;53.946;27.634;2023-07-29T04:49:34;9.333333;9.183333;7.166667
77516;PMS7003;68414;53.946;27.634;2023-07-29T04:50:34;7.033333;6.800000;5.366667
77516;PMS7003;68414;53.946;27.634;2023-07-29T04:51:34;10.166667;9.966666;7.683333
77516;PMS7003;68414;53.946;27.634;2023-07-29T04:52:34;12.166667;10.466666;7.783333
77516;PMS7003;68414;53.946;27.634;2023-07-29T04:53:34;9.116667;8.933333;6.800000
77516;PMS7003;68414;53.946;27.634;2023-07-29T04:54:34;9.350000;8.816667;7.166667
77516;PMS7003;68414;53.946;27.634;2023-07-29T04:55:34;6.866667;6.866667;5.433333
77516;PMS7003;68414;53.946;27.634;2023-07-29T04:56:34;9.850000;8.366667;6.233333
77516;PMS7003;68414;53.946;27.634;2023-07-29T04:57:34;9.016666;8.233334;5.883333
77516;PMS7003;68414;53.946;27.634;2023-07-29T04:58:34;9.183333;9.133333;6.133333
77516;PMS7003;68414;53.946;27.634;2023-07-29T04:59:34;8.433333;8.283334;5.833333